Snel-info
Kleurcode:
Groen
Er mag gevlogen worden.
Laatste update: 07/11/2018
Kleurcode informatie

Grasmaaien:

Geen maaibeurten gepland.

Volgende vliegdagen:

  • di 25 december : Kerstmis
  • wo 26 december : 2e Kerstdag
  • di 1 januari : Nieuwjaar
Alle extra vliegdagen

Weersituatie op PMF:

092_07-sep-2014_08_Danny.jpg

Huidige weersituatie

Huidig weerbeeld in Kleine Brogel, Belgium
Huidige wind in Kleine Brogel, Belgium

Dit is het bericht voor Kleine Brogel, Belgium en werd 21 minuten geleden gemaakt.
De wind waaide met een snelheid van 3.1 meter per seconde (11.1 km/h) uit het westen (280°).
De temperatuur was 6 °C. De atmosferische druk was 1023 hPa. De relative luchtvochtigheid was 87.0%.
Het was half bewolkt op een hoogte van 762 meter en zwaar bewolkt op een hoogte van 1219 meter. Het algemene zicht was 9.0 kilometer.

De onbewerkte METAR gegevens waarop dit bericht is gebaseerd zijn:
EBBL 101325Z 28006KT 9000 SCT025 BKN040 06/04 Q1023 BLU BLU TEMPO WHT


Opmerking:
De wind blijkt op PMF meestal iets krachtiger te waaien dan op Kleine Brogel. De windrichting klopt dan weer wel.




KMI

De weersvoorspellingen van het KMI vind je via deze link.


Buienradar

Op www.buienradar.nl kun je zelf zien waar het nu en de komende uren regent.